createdAt,value
2019-03-11T00:01:32.890Z,99220.27
2019-03-11T00:04:07.705Z,99226.66
2019-03-11T00:06:39.326Z,99221.34
2019-03-11T00:09:09.893Z,99236.16
2019-03-11T00:11:43.150Z,99229.70
2019-03-11T00:14:13.157Z,99222.44
2019-03-11T00:16:43.709Z,99217.08
2019-03-11T00:19:14.967Z,99212.11
2019-03-11T00:21:45.347Z,99221.00
2019-03-11T00:24:16.724Z,99218.52
2019-03-11T00:26:47.022Z,99218.02
2019-03-11T00:29:19.675Z,99210.52
2019-03-11T00:31:49.284Z,99219.73
2019-03-11T00:34:19.531Z,99211.52
2019-03-11T00:36:49.544Z,99218.63
2019-03-11T00:39:19.543Z,99220.89
2019-03-11T00:41:50.822Z,99219.44
2019-03-11T00:44:20.922Z,99219.44
2019-03-11T00:46:51.358Z,99222.40
2019-03-11T00:49:21.573Z,99228.63
2019-03-11T00:51:50.921Z,99226.19
2019-03-11T00:54:21.708Z,99229.18
2019-03-11T00:56:55.066Z,99233.39
2019-03-11T00:59:26.130Z,99222.98
2019-03-11T01:01:56.256Z,99223.53
2019-03-11T01:04:27.322Z,99224.12
2019-03-11T01:06:58.047Z,99213.77
2019-03-11T01:09:28.579Z,99208.66
2019-03-11T01:11:59.476Z,99202.31
2019-03-11T01:14:29.663Z,99203.39
2019-03-11T01:16:59.917Z,99203.39
2019-03-11T01:19:30.213Z,99208.70
2019-03-11T01:22:00.317Z,99204.30
2019-03-11T01:24:29.890Z,99195.34
2019-03-11T01:27:00.394Z,99203.75
2019-03-11T01:29:31.107Z,99206.42
2019-03-11T01:32:01.082Z,99208.57
2019-03-11T01:34:31.724Z,99196.55
2019-03-11T01:37:01.306Z,99192.69
2019-03-11T01:39:31.936Z,99192.42
2019-03-11T01:42:02.341Z,99186.22
2019-03-11T01:44:32.717Z,99182.06
2019-03-11T01:47:02.461Z,99175.41
2019-03-11T01:49:32.081Z,99167.89
2019-03-11T01:52:02.695Z,99167.89
2019-03-11T01:54:31.706Z,99159.93
2019-03-11T01:57:01.718Z,99154.05
2019-03-11T01:59:32.138Z,99148.27
2019-03-11T02:02:02.753Z,99142.64
2019-03-11T02:04:31.689Z,99140.80
2019-03-11T02:07:01.709Z,99138.94
2019-03-11T02:09:32.174Z,99133.73
2019-03-11T02:12:02.327Z,99130.21
2019-03-11T02:14:34.324Z,99130.07
2019-03-11T02:17:03.975Z,99123.61
2019-03-11T02:19:33.853Z,99123.07
2019-03-11T02:22:03.605Z,99125.34
2019-03-11T02:24:32.684Z,99127.02
2019-03-11T02:27:02.877Z,99116.89
2019-03-11T02:29:32.805Z,99112.91
2019-03-11T02:32:02.731Z,99116.05
2019-03-11T02:34:32.507Z,99111.59
2019-03-11T02:37:02.762Z,99100.78
2019-03-11T02:39:31.696Z,99100.78
2019-03-11T02:42:01.576Z,99094.23
2019-03-11T02:44:32.693Z,99089.76
2019-03-11T02:47:01.502Z,99079.03
2019-03-11T02:49:30.493Z,99077.89
2019-03-11T02:52:00.131Z,99065.39
2019-03-11T02:54:30.406Z,99065.39
2019-03-11T02:57:00.061Z,99061.37
2019-03-11T02:59:29.565Z,99052.56
2019-03-11T03:02:30.697Z,99042.41
2019-03-11T03:05:34.906Z,99042.41
2019-03-11T03:08:05.562Z,99043.80
2019-03-11T03:10:34.906Z,99045.09
2019-03-11T03:13:04.622Z,99036.92
2019-03-11T03:15:33.466Z,99034.77
2019-03-11T03:18:03.332Z,99027.98
2019-03-11T03:20:33.196Z,99027.98
2019-03-11T03:23:03.328Z,99030.09
2019-03-11T03:25:34.896Z,99032.45
2019-03-11T03:28:05.283Z,99030.86
2019-03-11T03:30:35.604Z,99011.89
2019-03-11T03:33:04.561Z,99011.89
2019-03-11T03:35:33.464Z,99012.31
2019-03-11T03:38:03.714Z,99011.06
2019-03-11T03:40:33.718Z,99011.06
2019-03-11T03:43:02.616Z,99015.09
2019-03-11T03:45:41.056Z,99013.80
2019-03-11T03:48:12.305Z,99008.41
2019-03-11T03:50:41.987Z,99014.43
2019-03-11T03:53:12.110Z,99022.45
2019-03-11T03:55:42.034Z,99018.22
2019-03-11T03:58:11.947Z,99019.08
2019-03-11T04:00:41.530Z,99016.73
2019-03-11T04:03:11.510Z,99013.56
2019-03-11T04:05:41.322Z,99015.30
2019-03-11T04:08:10.985Z,99015.30
2019-03-11T04:10:40.682Z,99012.63
2019-03-11T04:13:10.702Z,99025.05
2019-03-11T04:15:40.671Z,99021.77
2019-03-11T04:18:10.984Z,99005.18
2019-03-11T04:20:40.469Z,99005.18
2019-03-11T04:23:10.790Z,99002.27
2019-03-11T04:25:41.054Z,99002.27
2019-03-11T04:28:11.032Z,98999.31
2019-03-11T04:30:40.773Z,98994.53
2019-03-11T04:33:10.895Z,99004.06
2019-03-11T04:35:41.061Z,98989.75
2019-03-11T04:38:11.853Z,98990.70
2019-03-11T04:40:42.164Z,98992.29
2019-03-11T04:43:13.522Z,99001.89
2019-03-11T04:45:43.587Z,98993.78
2019-03-11T04:48:13.453Z,98982.55
2019-03-11T04:50:43.685Z,98974.72
2019-03-11T04:53:14.324Z,98974.72
2019-03-11T04:55:45.317Z,98962.64
2019-03-11T04:58:15.064Z,98962.76
2019-03-11T05:00:48.393Z,98934.14
2019-03-11T05:03:17.851Z,98939.77
2019-03-11T05:05:47.686Z,98937.53
2019-03-11T05:08:17.906Z,98903.13
2019-03-11T05:10:48.004Z,98892.41
2019-03-11T05:13:17.814Z,98890.73
2019-03-11T05:15:49.045Z,98911.28
2019-03-11T05:18:20.394Z,98902.48
2019-03-11T05:20:50.549Z,98912.66
2019-03-11T05:23:19.469Z,98927.37
2019-03-11T05:25:50.905Z,98906.92
2019-03-11T05:28:21.138Z,98909.34
2019-03-11T05:30:52.851Z,98905.72
2019-03-11T05:33:23.012Z,98892.29
2019-03-11T05:35:53.892Z,98906.09
2019-03-11T05:38:24.544Z,98916.23
2019-03-11T05:40:56.077Z,98901.77
2019-03-11T05:43:26.024Z,98901.77
2019-03-11T05:45:56.961Z,98887.19
2019-03-11T05:48:27.174Z,98870.01
2019-03-11T05:50:57.567Z,98891.69
2019-03-11T05:53:29.159Z,98905.78
2019-03-11T05:56:01.049Z,98897.16
2019-03-11T05:58:31.621Z,98903.47
2019-03-11T06:01:02.024Z,98900.38
2019-03-11T06:03:32.056Z,98911.27
2019-03-11T06:06:02.489Z,98913.72
2019-03-11T06:08:32.153Z,98915.42
2019-03-11T06:11:50.546Z,98923.56
2019-03-11T06:14:20.430Z,98913.98
2019-03-11T06:16:51.586Z,98915.98
2019-03-11T06:19:23.212Z,98915.98
2019-03-11T06:21:59.972Z,98916.14
2019-03-11T06:24:32.488Z,98924.30
2019-03-11T06:27:01.822Z,98914.44
2019-03-11T06:29:32.551Z,98918.37
2019-03-11T06:32:02.275Z,98903.33
2019-03-11T06:34:33.726Z,98913.48
2019-03-11T06:37:04.055Z,98917.70
2019-03-11T06:39:34.697Z,98928.42
2019-03-11T06:42:05.663Z,98921.46
2019-03-11T06:44:37.125Z,98916.33
2019-03-11T06:47:07.655Z,98941.55
2019-03-11T06:49:37.387Z,98926.13
2019-03-11T06:52:07.713Z,98947.15
2019-03-11T06:54:38.091Z,98945.99
2019-03-11T06:57:09.227Z,98960.39
2019-03-11T06:59:39.538Z,98953.40
2019-03-11T07:02:08.905Z,98950.36
2019-03-11T07:04:39.800Z,98947.94
2019-03-11T07:07:11.964Z,98966.03
2019-03-11T07:09:42.806Z,98958.04
2019-03-11T07:12:13.529Z,98941.07
2019-03-11T07:14:42.835Z,98957.63
2019-03-11T07:17:13.811Z,98957.63
2019-03-11T07:19:43.589Z,98966.70
2019-03-11T07:22:14.666Z,98976.62
2019-03-11T07:24:45.090Z,98976.62
2019-03-11T07:27:15.628Z,98986.64
2019-03-11T07:29:45.936Z,98989.50
2019-03-11T07:32:16.013Z,98988.53
2019-03-11T07:34:46.134Z,98994.06
2019-03-11T07:37:17.052Z,98991.86
2019-03-11T07:39:47.999Z,99006.30
2019-03-11T07:42:18.191Z,98996.77
2019-03-11T07:44:47.998Z,99029.46
2019-03-11T07:47:18.477Z,99010.32
2019-03-11T07:49:48.750Z,99004.22
2019-03-11T07:52:18.647Z,99018.76
2019-03-11T07:54:49.097Z,99015.42
2019-03-11T07:57:19.675Z,99014.41
2019-03-11T07:59:49.413Z,99018.59
2019-03-11T08:02:19.506Z,99035.36
2019-03-11T08:04:48.482Z,99071.97
2019-03-11T08:07:20.295Z,99068.03
2019-03-11T08:09:50.719Z,99088.67
2019-03-11T08:12:22.094Z,99088.67
2019-03-11T08:14:52.530Z,99077.69
2019-03-11T08:17:21.956Z,99081.67
2019-03-11T08:19:52.544Z,99076.02
2019-03-11T08:22:21.786Z,99086.47
2019-03-11T08:24:52.322Z,99063.52
2019-03-11T08:27:22.553Z,99078.13
2019-03-11T08:29:52.746Z,99102.72
2019-03-11T08:32:25.581Z,99102.72
2019-03-11T08:34:55.487Z,99116.63
2019-03-11T08:37:25.956Z,99112.84
2019-03-11T08:39:56.667Z,99112.84
2019-03-11T08:42:29.515Z,99122.69
2019-03-11T08:44:59.733Z,99132.56
2019-03-11T08:47:30.307Z,99117.37
2019-03-11T08:50:00.997Z,99124.17
2019-03-11T08:52:31.101Z,99124.94
2019-03-11T08:55:02.057Z,99118.82
2019-03-11T08:57:33.298Z,99114.48
2019-03-11T09:00:03.847Z,99122.94
2019-03-11T09:02:36.779Z,99116.77
2019-03-11T09:05:10.156Z,99114.34
2019-03-11T09:07:40.080Z,99125.95
2019-03-11T09:10:15.705Z,99114.56
2019-03-11T09:12:46.316Z,99120.36
2019-03-11T09:15:18.134Z,99121.46
2019-03-11T09:17:50.303Z,99119.13
2019-03-11T09:20:22.603Z,99098.59
2019-03-11T09:22:51.957Z,99117.00
2019-03-11T09:25:22.921Z,99097.19
2019-03-11T09:27:54.694Z,99111.39
2019-03-11T09:30:25.547Z,99104.17
2019-03-11T09:32:57.417Z,99117.38
2019-03-11T09:35:27.707Z,99099.50
2019-03-11T09:37:59.034Z,99109.29
2019-03-11T09:40:30.597Z,99113.78
2019-03-11T09:43:01.327Z,99125.63
2019-03-11T09:45:33.484Z,99125.63
2019-03-11T09:48:05.282Z,99106.17
2019-03-11T09:50:36.612Z,99108.55
2019-03-11T09:53:13.312Z,99109.45
2019-03-11T09:55:42.983Z,99114.63
2019-03-11T09:58:13.496Z,99111.78
2019-03-11T10:00:45.032Z,99108.13
2019-03-11T10:03:15.341Z,99108.13
2019-03-11T10:05:45.307Z,99117.92
2019-03-11T10:08:16.434Z,99117.77
2019-03-11T10:10:45.668Z,99125.86
2019-03-11T10:13:16.296Z,99125.80
2019-03-11T10:15:47.229Z,99126.19
2019-03-11T10:18:19.177Z,99124.44
2019-03-11T10:20:49.576Z,99126.52
2019-03-11T10:23:19.689Z,99130.96
2019-03-11T10:25:51.065Z,99137.11
2019-03-11T10:28:21.356Z,99131.32
2019-03-11T10:30:52.159Z,99137.28
2019-03-11T10:33:23.630Z,99134.73
2019-03-11T10:35:54.677Z,99139.47
2019-03-11T10:38:25.658Z,99124.27
2019-03-11T10:40:55.687Z,99139.95
2019-03-11T10:43:30.305Z,99152.19
2019-03-11T10:46:00.526Z,99133.78
2019-03-11T10:48:37.093Z,99145.24
2019-03-11T10:51:05.436Z,99145.12
2019-03-11T10:53:36.531Z,99141.62
2019-03-11T10:56:08.441Z,99141.62
2019-03-11T10:58:43.761Z,99143.05
2019-03-11T11:01:14.109Z,99168.63
2019-03-11T11:03:46.150Z,99161.91
2019-03-11T11:06:18.961Z,99165.70
2019-03-11T11:08:49.951Z,99163.41
2019-03-11T11:11:22.216Z,99160.98
2019-03-11T11:13:53.546Z,99160.98
2019-03-11T11:16:23.908Z,99169.00
2019-03-11T11:18:55.335Z,99169.00
2019-03-11T11:21:25.662Z,99189.57
2019-03-11T11:23:55.827Z,99191.28
2019-03-11T11:26:26.037Z,99194.17
2019-03-11T11:28:56.045Z,99191.59
2019-03-11T11:31:26.767Z,99193.36
2019-03-11T11:33:57.111Z,99182.28
2019-03-11T11:36:27.543Z,99211.03
2019-03-11T11:38:58.322Z,99210.00
2019-03-11T11:41:29.330Z,99210.00
2019-03-11T11:43:59.308Z,99229.79
2019-03-11T11:46:29.315Z,99238.17
2019-03-11T11:48:59.534Z,99231.50
2019-03-11T11:51:29.319Z,99218.61
2019-03-11T11:54:02.053Z,99218.61
2019-03-11T11:56:32.583Z,99227.56
2019-03-11T11:59:03.555Z,99216.97
2019-03-11T12:01:33.583Z,99212.05
2019-03-11T12:04:03.752Z,99206.10
2019-03-11T12:06:35.126Z,99206.10
2019-03-11T12:09:05.868Z,99211.75
2019-03-11T12:11:38.073Z,99212.44
2019-03-11T12:14:12.633Z,99219.62
2019-03-11T12:16:42.500Z,99220.16
2019-03-11T12:19:12.556Z,99234.69
2019-03-11T12:21:42.196Z,99219.59
2019-03-11T12:24:12.665Z,99219.59
2019-03-11T12:26:46.114Z,99230.78
2019-03-11T12:29:16.146Z,99234.34
2019-03-11T12:31:46.721Z,99242.02
2019-03-11T12:34:16.843Z,99247.80
2019-03-11T12:36:46.584Z,99242.84
2019-03-11T12:39:16.274Z,99247.96
2019-03-11T12:41:47.926Z,99250.88
2019-03-11T12:44:19.608Z,99239.27
2019-03-11T12:46:49.870Z,99243.83
2019-03-11T12:49:20.581Z,99248.70
2019-03-11T12:51:50.353Z,99231.07
2019-03-11T12:54:20.946Z,99231.07
2019-03-11T12:56:50.960Z,99226.72
2019-03-11T12:59:23.327Z,99234.48
2019-03-11T13:01:53.842Z,99231.22
2019-03-11T13:04:24.847Z,99235.16
2019-03-11T13:06:55.964Z,99223.13
2019-03-11T13:09:26.322Z,99248.16
2019-03-11T13:11:57.323Z,99238.36
2019-03-11T13:14:28.315Z,99244.91
2019-03-11T13:16:59.114Z,99248.66
2019-03-11T13:19:31.173Z,99248.66
2019-03-11T13:22:05.319Z,99249.47
2019-03-11T13:24:35.619Z,99262.05
2019-03-11T13:27:06.536Z,99249.34
2019-03-11T13:29:38.485Z,99246.92
2019-03-11T13:32:08.950Z,99259.03
2019-03-11T13:34:39.332Z,99251.48
2019-03-11T13:37:09.794Z,99259.58
2019-03-11T13:39:41.569Z,99259.17
2019-03-11T13:42:11.286Z,99270.53
2019-03-11T13:44:41.968Z,99256.70
2019-03-11T13:47:11.999Z,99271.14
2019-03-11T13:49:45.518Z,99266.28
2019-03-11T13:52:15.715Z,99270.61
2019-03-11T13:54:46.784Z,99270.61
2019-03-11T13:57:19.070Z,99273.38
2019-03-11T13:59:49.310Z,99280.31
2019-03-11T14:02:20.116Z,99302.61
2019-03-11T14:04:51.577Z,99292.06
2019-03-11T14:07:21.673Z,99293.07
2019-03-11T14:09:51.861Z,99305.09
2019-03-11T14:12:22.309Z,99304.11
2019-03-11T14:14:52.139Z,99306.87
2019-03-11T14:17:23.548Z,99304.47
2019-03-11T14:19:54.642Z,99312.44
2019-03-11T14:22:24.466Z,99312.44
2019-03-11T14:24:55.582Z,99308.72
2019-03-11T14:27:26.622Z,99308.72
2019-03-11T14:29:56.191Z,99313.69
2019-03-11T14:32:26.062Z,99313.44
2019-03-11T14:34:56.606Z,99342.33
2019-03-11T14:37:26.309Z,99338.90
2019-03-11T14:39:56.273Z,99338.90
2019-03-11T14:42:28.939Z,99354.09
2019-03-11T14:44:59.644Z,99346.98
2019-03-11T14:47:29.605Z,99349.30
2019-03-11T14:49:59.200Z,99351.88
2019-03-11T14:52:29.008Z,99363.88
2019-03-11T14:54:58.864Z,99368.48
2019-03-11T14:57:28.673Z,99361.67
2019-03-11T14:59:58.613Z,99365.81
2019-03-11T15:02:29.320Z,99373.67
2019-03-11T15:05:29.975Z,99366.77
2019-03-11T15:08:00.521Z,99376.90
2019-03-11T15:10:31.316Z,99366.57
2019-03-11T15:13:00.857Z,99377.88
2019-03-11T15:15:31.123Z,99373.12
2019-03-11T15:18:01.795Z,99373.73
2019-03-11T15:20:31.507Z,99381.69
2019-03-11T15:23:06.249Z,99371.56
2019-03-11T15:25:34.574Z,99371.56
2019-03-11T15:28:05.343Z,99365.94
2019-03-11T15:30:35.164Z,99376.98
2019-03-11T15:33:06.591Z,99372.23
2019-03-11T15:35:37.708Z,99369.41
2019-03-11T15:38:12.560Z,99356.69
2019-03-11T15:40:42.922Z,99374.26
2019-03-11T15:43:13.682Z,99366.83
2019-03-11T15:45:43.518Z,99382.66
2019-03-11T15:48:13.577Z,99373.94
2019-03-11T15:50:43.045Z,99373.94
2019-03-11T15:53:13.707Z,99377.49
2019-03-11T15:55:44.913Z,99387.27
2019-03-11T15:58:15.023Z,99386.28
2019-03-11T16:00:45.117Z,99390.09
2019-03-11T16:03:15.512Z,99390.99
2019-03-11T16:05:45.815Z,99383.02
2019-03-11T16:08:16.068Z,99383.02
2019-03-11T16:10:47.535Z,99418.02
2019-03-11T16:13:18.526Z,99492.52
2019-03-11T16:16:07.810Z,99465.63
2019-03-11T16:18:42.133Z,99465.63
2019-03-11T16:21:18.014Z,99462.90
2019-03-11T16:24:01.130Z,99453.00
2019-03-11T16:26:45.547Z,99447.54
2019-03-11T16:29:24.566Z,99454.59
2019-03-11T16:32:03.755Z,99463.12
2019-03-11T16:34:40.927Z,99463.12
2019-03-11T16:37:22.690Z,99450.46
2019-03-11T16:40:25.628Z,99448.17
2019-03-11T16:42:58.252Z,99452.66
2019-03-11T16:45:31.672Z,99452.11
2019-03-11T16:48:24.548Z,99456.28
2019-03-11T16:50:55.568Z,99456.46
2019-03-11T16:53:31.538Z,99456.46
2019-03-11T16:56:04.718Z,99464.74
2019-03-11T16:58:38.633Z,99466.16
2019-03-11T17:01:14.188Z,99472.00
2019-03-11T17:03:44.558Z,99472.24
2019-03-11T17:06:20.329Z,99459.58
2019-03-11T17:08:53.345Z,99455.25
2019-03-11T17:11:23.918Z,99459.15
2019-03-11T17:13:54.820Z,99464.42
2019-03-11T17:16:25.897Z,99464.08
2019-03-11T17:18:56.321Z,99472.03
2019-03-11T17:21:27.875Z,99479.78
2019-03-11T17:23:57.492Z,99484.83
2019-03-11T17:26:27.410Z,99481.94
2019-03-11T17:28:57.560Z,99481.94
2019-03-11T17:31:27.577Z,99493.31
2019-03-11T17:33:56.547Z,99493.31
2019-03-11T17:36:26.586Z,99501.59
2019-03-11T17:38:55.515Z,99501.59
2019-03-11T17:41:25.911Z,99510.88
2019-03-11T17:43:57.276Z,99510.88
2019-03-11T17:46:27.281Z,99511.56
2019-03-11T17:48:58.144Z,99516.42
2019-03-11T17:51:28.133Z,99525.15
2019-03-11T17:53:58.322Z,99520.77
2019-03-11T17:56:28.560Z,99536.83
2019-03-11T17:58:58.265Z,99538.88
2019-03-11T18:01:28.504Z,99547.42
2019-03-11T18:03:58.618Z,99547.84
2019-03-11T18:06:27.504Z,99547.84
2019-03-11T18:08:57.732Z,99560.66
2019-03-11T18:11:29.720Z,99566.05
2019-03-11T18:14:07.101Z,99567.29
2019-03-11T18:16:41.258Z,99579.95
2019-03-11T18:19:13.733Z,99579.79
2019-03-11T18:21:45.003Z,99577.62
2019-03-11T18:24:17.178Z,99581.39
2019-03-11T18:26:47.515Z,99584.06
2019-03-11T18:29:17.432Z,99578.64
2019-03-11T18:31:48.713Z,99578.45
2019-03-11T18:34:19.963Z,99578.45
2019-03-11T18:36:49.922Z,99580.27
2019-03-11T18:39:27.269Z,99583.02
2019-03-11T18:41:57.916Z,99586.80
2019-03-11T18:44:27.781Z,99589.59
2019-03-11T18:46:58.321Z,99593.86
2019-03-11T18:49:31.161Z,99597.92
2019-03-11T18:52:01.228Z,99601.15
2019-03-11T18:54:31.245Z,99614.27
2019-03-11T18:57:02.342Z,99619.27
2019-03-11T18:59:32.840Z,99612.17
2019-03-11T19:02:07.377Z,99616.75
2019-03-11T19:04:39.887Z,99616.67
2019-03-11T19:07:11.870Z,99615.94
2019-03-11T19:09:42.064Z,99618.21
2019-03-11T19:12:12.806Z,99626.77
2019-03-11T19:14:43.745Z,99631.41
2019-03-11T19:17:16.909Z,99635.39
2019-03-11T19:19:47.763Z,99635.68
2019-03-11T19:22:20.481Z,99639.11
2019-03-11T19:24:51.014Z,99639.52
2019-03-11T19:27:22.164Z,99646.18
2019-03-11T19:29:53.579Z,99644.20
2019-03-11T19:32:22.634Z,99653.98
2019-03-11T19:34:53.627Z,99649.78
2019-03-11T19:37:24.535Z,99649.16
2019-03-11T19:39:54.460Z,99650.05
2019-03-11T19:42:26.074Z,99641.84
2019-03-11T19:44:57.142Z,99641.84
2019-03-11T19:47:27.137Z,99651.21
2019-03-11T19:49:57.404Z,99653.69
2019-03-11T19:52:28.520Z,99644.11
2019-03-11T19:55:02.066Z,99650.89
2019-03-11T19:57:33.468Z,99650.89
2019-03-11T20:00:05.820Z,99654.95
2019-03-11T20:02:36.572Z,99654.95
2019-03-11T20:05:07.528Z,99661.25
2019-03-11T20:07:40.617Z,99663.83
2019-03-11T20:10:12.167Z,99667.58
2019-03-11T20:12:47.409Z,99662.22
2019-03-11T20:15:19.568Z,99678.39
2019-03-11T20:17:49.828Z,99676.84
2019-03-11T20:20:24.163Z,99678.70
2019-03-11T20:23:02.254Z,99687.75
2019-03-11T20:25:34.803Z,99677.16
2019-03-11T20:28:06.006Z,99677.16
2019-03-11T20:30:38.109Z,99695.70
2019-03-11T20:33:08.546Z,99691.06
2019-03-11T20:35:38.938Z,99704.72
2019-03-11T20:38:09.670Z,99702.15
2019-03-11T20:40:41.423Z,99697.90
2019-03-11T20:43:12.311Z,99710.91
2019-03-11T20:45:44.584Z,99710.34
2019-03-11T20:48:14.194Z,99706.00
2019-03-11T20:50:44.579Z,99714.54
2019-03-11T20:53:16.702Z,99713.23
2019-03-11T20:55:47.209Z,99712.48
2019-03-11T20:58:18.381Z,99719.87
2019-03-11T21:00:48.737Z,99713.55
2019-03-11T21:03:21.664Z,99721.03
2019-03-11T21:05:53.917Z,99731.50
2019-03-11T21:08:24.835Z,99719.10
2019-03-11T21:10:55.886Z,99735.28
2019-03-11T21:13:26.541Z,99739.44
2019-03-11T21:15:56.157Z,99730.74
2019-03-11T21:18:26.602Z,99732.12
2019-03-11T21:21:04.884Z,99735.83
2019-03-11T21:23:26.932Z,99739.84
2019-03-11T21:25:58.630Z,99738.59
2019-03-11T21:28:27.731Z,99738.59
2019-03-11T21:30:57.838Z,99743.88
2019-03-11T21:33:28.069Z,99727.01
2019-03-11T21:35:58.549Z,99737.46
2019-03-11T21:38:31.470Z,99748.16
2019-03-11T21:41:03.909Z,99736.28
2019-03-11T21:43:35.013Z,99736.28
2019-03-11T21:46:06.377Z,99744.11
2019-03-11T21:48:51.807Z,99739.03
2019-03-11T21:51:49.598Z,99741.56
2019-03-11T21:54:19.633Z,99758.64
2019-03-11T21:56:55.463Z,99773.94
2019-03-11T21:59:33.208Z,99760.49
2019-03-11T22:02:14.365Z,99775.17
2019-03-11T22:04:45.656Z,99776.64
2019-03-11T22:07:16.144Z,99769.33
2019-03-11T22:09:47.478Z,99764.83
2019-03-11T22:12:17.908Z,99772.63
2019-03-11T22:14:47.918Z,99770.92
2019-03-11T22:17:18.164Z,99776.33
2019-03-11T22:19:48.133Z,99779.48
2019-03-11T22:22:18.006Z,99781.91
2019-03-11T22:24:48.166Z,99779.09
2019-03-11T22:27:18.191Z,99772.69
2019-03-11T22:29:48.638Z,99783.86
2019-03-11T22:32:18.672Z,99781.47
2019-03-11T22:34:48.769Z,99779.48
2019-03-11T22:37:18.681Z,99785.78
2019-03-11T22:39:48.830Z,99771.85
2019-03-11T22:42:18.673Z,99778.24
2019-03-11T22:44:49.522Z,99786.18
2019-03-11T22:47:19.823Z,99792.94
2019-03-11T22:49:49.808Z,99792.94
2019-03-11T22:52:20.636Z,99794.99
2019-03-11T22:54:50.571Z,99796.94
2019-03-11T22:57:19.511Z,99802.16
2019-03-11T22:59:50.020Z,99802.16
2019-03-11T23:02:19.882Z,99794.52
2019-03-11T23:04:49.677Z,99794.14
2019-03-11T23:07:19.743Z,99793.56
2019-03-11T23:09:49.522Z,99793.56
2019-03-11T23:12:19.752Z,99807.92
2019-03-11T23:14:50.820Z,99807.92
2019-03-11T23:17:21.763Z,99798.83
2019-03-11T23:19:52.339Z,99806.82
2019-03-11T23:22:21.872Z,99810.94
2019-03-11T23:24:51.505Z,99813.16
2019-03-11T23:27:21.317Z,99810.89
2019-03-11T23:29:52.012Z,99810.89
2019-03-11T23:32:21.688Z,99826.17
2019-03-11T23:34:51.318Z,99819.27
2019-03-11T23:37:20.907Z,99829.33
2019-03-11T23:39:50.730Z,99831.31
2019-03-11T23:42:20.703Z,99834.09
2019-03-11T23:44:50.679Z,99837.19
2019-03-11T23:47:20.457Z,99836.98
2019-03-11T23:49:50.499Z,99827.41
2019-03-11T23:52:20.502Z,99841.77
2019-03-11T23:54:50.353Z,99840.70
2019-03-11T23:57:20.313Z,99840.70
2019-03-11T23:59:50.487Z,99841.39
